createdAt,value
2019-05-17T00:00:41.576Z,33.80
2019-05-17T00:01:41.576Z,35.00
2019-05-17T00:02:41.564Z,36.00
2019-05-17T00:03:41.563Z,33.20
2019-05-17T00:04:41.594Z,32.70
2019-05-17T00:05:41.557Z,34.10
2019-05-17T00:06:41.557Z,32.70
2019-05-17T00:07:41.548Z,32.00
2019-05-17T00:08:41.552Z,35.00
2019-05-17T00:09:41.574Z,31.70
2019-05-17T00:10:41.540Z,33.60
2019-05-17T00:11:41.546Z,31.10
2019-05-17T00:12:42.425Z,29.30
2019-05-17T00:13:41.533Z,34.30
2019-05-17T00:14:41.554Z,34.30
2019-05-17T00:15:41.525Z,33.40
2019-05-17T00:16:41.527Z,31.00
2019-05-17T00:17:41.515Z,31.40
2019-05-17T00:18:41.518Z,34.30
2019-05-17T00:19:41.535Z,35.90
2019-05-17T00:20:41.503Z,34.60
2019-05-17T00:21:41.502Z,33.50
2019-05-17T00:22:41.503Z,32.10
2019-05-17T00:23:41.499Z,31.90
2019-05-17T00:24:41.521Z,31.30
2019-05-17T00:25:41.489Z,35.30
2019-05-17T00:26:41.491Z,33.80
2019-05-17T00:27:41.487Z,32.90
2019-05-17T00:28:41.481Z,34.30
2019-05-17T00:29:41.503Z,35.90
2019-05-17T00:30:41.476Z,32.40
2019-05-17T00:31:41.474Z,32.40
2019-05-17T00:32:41.471Z,32.80
2019-05-17T00:33:41.459Z,30.40
2019-05-17T00:34:41.485Z,35.10
2019-05-17T00:35:42.357Z,33.50
2019-05-17T00:36:41.452Z,34.20
2019-05-17T00:37:41.456Z,33.60
2019-05-17T00:38:48.376Z,30.20
2019-05-17T00:39:41.476Z,35.40
2019-05-17T00:40:41.983Z,36.80
2019-05-17T00:41:41.439Z,34.50
2019-05-17T00:42:41.438Z,36.20
2019-05-17T00:43:41.430Z,37.90
2019-05-17T00:44:41.455Z,38.30
2019-05-17T00:45:41.425Z,36.50
2019-05-17T00:46:41.424Z,34.00
2019-05-17T00:47:41.420Z,32.00
2019-05-17T00:48:41.414Z,36.70
2019-05-17T00:49:41.444Z,34.50
2019-05-17T00:50:41.425Z,37.70
2019-05-17T00:51:41.411Z,35.70
2019-05-17T00:52:41.405Z,35.90
2019-05-17T00:53:41.396Z,38.90
2019-05-17T00:54:41.421Z,37.00
2019-05-17T00:55:41.392Z,39.90
2019-05-17T00:56:41.403Z,37.10
2019-05-17T00:57:41.384Z,37.30
2019-05-17T00:58:41.927Z,36.30
2019-05-17T00:59:41.419Z,36.70
2019-05-17T01:00:41.387Z,35.90
2019-05-17T01:01:41.981Z,39.90
2019-05-17T01:02:41.369Z,36.90
2019-05-17T01:03:41.365Z,38.10
2019-05-17T01:04:41.401Z,37.40
2019-05-17T01:05:41.357Z,36.50
2019-05-17T01:06:41.360Z,36.30
2019-05-17T01:07:41.928Z,38.10
2019-05-17T01:08:41.358Z,38.60
2019-05-17T01:09:41.378Z,39.70
2019-05-17T01:10:41.345Z,38.10
2019-05-17T01:11:41.349Z,36.10
2019-05-17T01:12:41.342Z,37.10
2019-05-17T01:13:41.415Z,41.30
2019-05-17T01:14:41.363Z,42.10
2019-05-17T01:15:41.326Z,37.80
2019-05-17T01:16:41.330Z,37.60
2019-05-17T01:17:41.328Z,42.40
2019-05-17T01:18:41.338Z,39.90
2019-05-17T01:19:41.348Z,45.70
2019-05-17T01:20:41.311Z,42.90
2019-05-17T01:21:41.318Z,43.90
2019-05-17T01:22:41.306Z,44.30
2019-05-17T01:23:41.307Z,43.00
2019-05-17T01:24:41.532Z,42.90
2019-05-17T01:25:41.302Z,39.80
2019-05-17T01:26:41.295Z,39.00
2019-05-17T01:27:42.359Z,41.50
2019-05-17T01:28:41.281Z,40.60
2019-05-17T01:29:41.314Z,44.00
2019-05-17T01:30:41.287Z,44.10
2019-05-17T01:31:41.278Z,47.60
2019-05-17T01:32:41.275Z,44.30
2019-05-17T01:33:41.270Z,46.20
2019-05-17T01:34:41.291Z,43.60
2019-05-17T01:35:41.264Z,47.60
2019-05-17T01:36:41.263Z,39.10
2019-05-17T01:37:42.067Z,47.70
2019-05-17T01:38:41.262Z,43.80
2019-05-17T01:39:41.283Z,47.40
2019-05-17T01:40:41.250Z,46.20
2019-05-17T01:41:41.243Z,48.40
2019-05-17T01:42:41.240Z,48.30
2019-05-17T01:43:41.248Z,47.20
2019-05-17T01:44:41.261Z,47.20
2019-05-17T01:45:41.232Z,46.80
2019-05-17T01:46:41.233Z,47.40
2019-05-17T01:47:41.219Z,48.00
2019-05-17T01:48:41.223Z,50.90
2019-05-17T01:49:41.247Z,46.00
2019-05-17T01:50:41.244Z,46.50
2019-05-17T01:51:41.217Z,47.00
2019-05-17T01:52:41.210Z,49.40
2019-05-17T01:53:41.204Z,45.20
2019-05-17T01:54:41.200Z,46.60
2019-05-17T01:55:41.228Z,46.00
2019-05-17T01:56:41.199Z,46.40
2019-05-17T01:57:41.187Z,45.10
2019-05-17T01:58:41.189Z,44.60
2019-05-17T01:59:41.185Z,43.30
2019-05-17T02:00:41.936Z,43.00
2019-05-17T02:01:41.181Z,47.00
2019-05-17T02:02:41.176Z,44.90
2019-05-17T02:03:41.172Z,45.90
2019-05-17T02:04:41.167Z,46.00
2019-05-17T02:05:41.193Z,48.90
2019-05-17T02:06:41.160Z,46.20
2019-05-17T02:07:41.167Z,52.80
2019-05-17T02:08:41.154Z,49.90
2019-05-17T02:09:41.908Z,49.40
2019-05-17T02:10:41.172Z,45.00
2019-05-17T02:11:41.145Z,51.80
2019-05-17T02:12:41.140Z,48.60
2019-05-17T02:13:41.271Z,47.40
2019-05-17T02:14:41.139Z,55.50
2019-05-17T02:15:41.156Z,53.70
2019-05-17T02:16:41.129Z,55.40
2019-05-17T02:17:41.120Z,53.20
2019-05-17T02:18:41.114Z,53.60
2019-05-17T02:19:41.146Z,53.80
2019-05-17T02:20:41.112Z,50.30
2019-05-17T02:21:41.108Z,58.20
2019-05-17T02:22:41.105Z,57.40
2019-05-17T02:23:41.102Z,54.70
2019-05-17T02:24:41.125Z,59.30
2019-05-17T02:25:41.108Z,57.40
2019-05-17T02:26:41.094Z,52.40
2019-05-17T02:27:44.498Z,53.80
2019-05-17T02:28:41.460Z,52.70
2019-05-17T02:29:42.438Z,53.00
2019-05-17T02:30:44.095Z,57.00
2019-05-17T02:31:43.439Z,60.80
2019-05-17T02:32:43.082Z,56.30
2019-05-17T02:33:43.033Z,60.00
2019-05-17T02:34:43.058Z,57.50
2019-05-17T02:35:42.980Z,55.80
2019-05-17T02:36:43.134Z,55.70
2019-05-17T02:37:43.392Z,51.30
2019-05-17T02:38:43.622Z,53.30
2019-05-17T02:39:54.010Z,49.00
2019-05-17T02:40:43.098Z,52.10
2019-05-17T02:41:42.960Z,50.20
2019-05-17T02:42:43.014Z,45.20
2019-05-17T02:43:43.421Z,42.00
2019-05-17T02:44:43.769Z,40.40
2019-05-17T02:45:43.559Z,38.90
2019-05-17T02:46:43.295Z,39.60
2019-05-17T02:47:43.580Z,41.30
2019-05-17T02:48:42.769Z,41.50
2019-05-17T02:49:42.452Z,39.40
2019-05-17T02:50:43.196Z,40.50
2019-05-17T02:51:43.154Z,39.30
2019-05-17T02:52:43.566Z,38.60
2019-05-17T02:53:42.987Z,39.90
2019-05-17T02:54:43.699Z,37.50
2019-05-17T02:55:43.553Z,36.00
2019-05-17T02:56:43.627Z,38.30
2019-05-17T02:57:43.273Z,38.40
2019-05-17T02:58:43.750Z,42.30
2019-05-17T02:59:43.293Z,40.80
2019-05-17T03:00:44.350Z,43.90
2019-05-17T03:01:44.232Z,41.50
2019-05-17T03:02:43.467Z,42.50
2019-05-17T03:03:43.713Z,44.40
2019-05-17T03:04:43.283Z,43.40
2019-05-17T03:05:43.045Z,41.60
2019-05-17T03:06:43.792Z,44.30
2019-05-17T03:07:43.908Z,43.50
2019-05-17T03:08:42.965Z,40.10
2019-05-17T03:09:43.152Z,42.60
2019-05-17T03:10:43.263Z,43.70
2019-05-17T03:11:42.870Z,43.50
2019-05-17T03:12:43.925Z,41.40
2019-05-17T03:13:43.414Z,42.00
2019-05-17T03:14:43.246Z,45.90
2019-05-17T03:15:43.276Z,44.00
2019-05-17T03:16:43.078Z,46.50
2019-05-17T03:17:43.295Z,43.10
2019-05-17T03:18:43.763Z,43.80
2019-05-17T03:19:43.522Z,44.90
2019-05-17T03:20:43.151Z,43.80
2019-05-17T03:21:42.857Z,45.20
2019-05-17T03:22:44.167Z,45.00
2019-05-17T03:23:43.533Z,45.10
2019-05-17T03:24:43.680Z,45.90
2019-05-17T03:25:43.774Z,43.10
2019-05-17T03:26:43.075Z,45.20
2019-05-17T03:27:42.888Z,43.80
2019-05-17T03:28:42.690Z,46.30
2019-05-17T03:29:42.516Z,49.70
2019-05-17T03:30:45.994Z,48.40
2019-05-17T03:31:50.103Z,51.10
2019-05-17T03:32:46.408Z,49.90
2019-05-17T03:33:45.385Z,48.70
2019-05-17T03:34:44.892Z,47.80
2019-05-17T03:35:45.717Z,49.50
2019-05-17T03:36:46.124Z,53.00
2019-05-17T03:37:43.732Z,50.60
2019-05-17T03:38:43.163Z,45.20
2019-05-17T03:39:42.711Z,43.80
2019-05-17T03:41:07.567Z,46.00
2019-05-17T03:41:42.858Z,50.60
2019-05-17T03:42:42.809Z,46.80
2019-05-17T03:43:44.125Z,46.90
2019-05-17T03:44:43.615Z,49.50
2019-05-17T03:45:42.673Z,52.50
2019-05-17T03:46:42.548Z,45.80
2019-05-17T03:47:43.939Z,46.70
2019-05-17T03:48:43.568Z,45.40
2019-05-17T03:49:43.567Z,45.60
2019-05-17T03:50:43.478Z,47.60
2019-05-17T03:51:42.596Z,43.60
2019-05-17T03:52:43.808Z,46.90
2019-05-17T03:53:43.893Z,46.50
2019-05-17T03:54:43.001Z,47.60
2019-05-17T03:55:42.994Z,49.30
2019-05-17T03:56:42.802Z,45.90
2019-05-17T03:57:43.905Z,45.30
2019-05-17T03:58:43.347Z,42.40
2019-05-17T03:59:43.080Z,42.60
2019-05-17T04:00:42.799Z,47.80
2019-05-17T04:01:43.630Z,45.50
2019-05-17T04:02:44.427Z,43.70
2019-05-17T04:03:43.421Z,44.30
2019-05-17T04:04:42.956Z,44.00
2019-05-17T04:05:42.957Z,42.50
2019-05-17T04:06:43.342Z,42.20
2019-05-17T04:07:43.345Z,41.70
2019-05-17T04:08:42.526Z,41.80
2019-05-17T04:09:43.701Z,44.50
2019-05-17T04:10:42.588Z,40.90
2019-05-17T04:11:42.974Z,40.50
2019-05-17T04:12:43.637Z,35.00
2019-05-17T04:13:43.018Z,37.90
2019-05-17T04:14:42.916Z,36.80
2019-05-17T04:15:43.404Z,32.20
2019-05-17T04:16:42.901Z,33.20
2019-05-17T04:17:43.992Z,33.50
2019-05-17T04:18:43.742Z,33.30
2019-05-17T04:19:42.552Z,31.50
2019-05-17T04:20:43.329Z,30.60
2019-05-17T04:21:42.916Z,31.40
2019-05-17T04:22:43.975Z,29.90
2019-05-17T04:23:42.894Z,28.70
2019-05-17T04:24:43.786Z,30.00
2019-05-17T04:25:43.623Z,29.90
2019-05-17T04:26:43.829Z,27.90
2019-05-17T04:27:43.560Z,28.90
2019-05-17T04:28:43.778Z,29.10
2019-05-17T04:29:42.569Z,27.90
2019-05-17T04:30:43.294Z,26.30
2019-05-17T04:31:43.496Z,28.80
2019-05-17T04:32:43.625Z,26.70
2019-05-17T04:33:42.747Z,28.00
2019-05-17T04:34:43.409Z,26.20
2019-05-17T04:35:43.236Z,27.30
2019-05-17T04:36:42.944Z,25.20
2019-05-17T04:37:43.871Z,23.90
2019-05-17T04:38:43.471Z,25.90
2019-05-17T04:39:43.082Z,25.70
2019-05-17T04:40:43.134Z,25.20
2019-05-17T04:41:49.087Z,24.20
2019-05-17T04:42:43.891Z,24.10
2019-05-17T04:43:42.422Z,23.70
2019-05-17T04:44:43.134Z,25.20
2019-05-17T04:45:42.577Z,24.30
2019-05-17T04:46:43.196Z,23.10
2019-05-17T04:47:43.687Z,24.80
2019-05-17T04:48:43.865Z,25.30
2019-05-17T04:49:43.713Z,23.60
2019-05-17T04:50:42.858Z,22.50
2019-05-17T04:51:43.718Z,23.00
2019-05-17T04:52:42.879Z,21.90
2019-05-17T04:53:42.985Z,22.90
2019-05-17T04:54:42.450Z,22.40
2019-05-17T04:55:43.045Z,23.00
2019-05-17T04:56:42.593Z,23.40
2019-05-17T04:57:44.061Z,25.60
2019-05-17T04:58:42.970Z,24.60
2019-05-17T04:59:43.145Z,22.00
2019-05-17T05:00:43.087Z,23.30
2019-05-17T05:01:43.554Z,22.80
2019-05-17T05:02:43.447Z,22.80
2019-05-17T05:04:03.485Z,22.60
2019-05-17T05:04:43.470Z,24.00
2019-05-17T05:05:42.798Z,21.70
2019-05-17T05:06:43.402Z,27.90
2019-05-17T05:07:43.195Z,20.50
2019-05-17T05:08:42.419Z,21.80
2019-05-17T05:09:42.914Z,23.70
2019-05-17T05:10:42.690Z,21.90
2019-05-17T05:11:53.378Z,22.50
2019-05-17T05:12:43.541Z,21.60
2019-05-17T05:13:42.652Z,22.20
2019-05-17T05:14:42.879Z,22.50
2019-05-17T05:15:43.370Z,20.50
2019-05-17T05:16:42.396Z,22.30
2019-05-17T05:17:42.516Z,23.70
2019-05-17T05:18:42.071Z,22.20
2019-05-17T05:19:42.245Z,21.90
2019-05-17T05:20:43.142Z,23.90
2019-05-17T05:21:42.664Z,22.20
2019-05-17T05:22:42.608Z,21.60
2019-05-17T05:23:42.447Z,22.10
2019-05-17T05:24:42.328Z,23.00
2019-05-17T05:25:42.723Z,22.40
2019-05-17T05:26:42.505Z,23.70
2019-05-17T05:27:42.786Z,22.50
2019-05-17T05:28:41.957Z,22.40
2019-05-17T05:29:41.588Z,22.90
2019-05-17T05:30:42.193Z,22.30
2019-05-17T05:31:42.611Z,21.80
2019-05-17T05:32:42.597Z,20.40
2019-05-17T05:33:41.963Z,20.70
2019-05-17T05:34:42.757Z,20.00
2019-05-17T05:35:42.502Z,22.40
2019-05-17T05:36:41.897Z,18.30
2019-05-17T05:37:42.267Z,21.20
2019-05-17T05:38:42.276Z,21.60
2019-05-17T05:39:41.409Z,19.40
2019-05-17T05:40:41.431Z,20.90
2019-05-17T05:41:42.533Z,21.20
2019-05-17T05:42:42.647Z,19.90
2019-05-17T05:43:41.969Z,20.10
2019-05-17T05:44:41.582Z,22.80
2019-05-17T05:45:41.783Z,20.30
2019-05-17T05:46:42.248Z,19.00
2019-05-17T05:47:41.554Z,20.30
2019-05-17T05:48:41.610Z,20.60
2019-05-17T05:49:42.489Z,21.80
2019-05-17T05:50:42.559Z,19.90
2019-05-17T05:51:42.516Z,20.20
2019-05-17T05:52:42.186Z,21.50
2019-05-17T05:53:41.937Z,20.80
2019-05-17T05:54:41.300Z,21.80
2019-05-17T05:55:42.783Z,20.40
2019-05-17T05:56:42.277Z,21.40
2019-05-17T05:57:42.115Z,21.60
2019-05-17T05:58:42.668Z,20.70
2019-05-17T05:59:42.542Z,21.20
2019-05-17T06:00:42.767Z,19.70
2019-05-17T06:01:42.089Z,18.40
2019-05-17T06:02:41.915Z,20.90
2019-05-17T06:03:41.445Z,19.70
2019-05-17T06:04:42.423Z,19.80
2019-05-17T06:05:42.316Z,20.40
2019-05-17T06:06:41.643Z,18.10
2019-05-17T06:07:41.666Z,19.60
2019-05-17T06:08:41.469Z,18.90
2019-05-17T06:09:42.373Z,19.90
2019-05-17T06:10:42.633Z,18.20
2019-05-17T06:11:41.685Z,17.60
2019-05-17T06:12:42.965Z,18.40
2019-05-17T06:13:41.901Z,19.80
2019-05-17T06:14:41.673Z,17.80
2019-05-17T06:15:42.658Z,18.00
2019-05-17T06:16:42.463Z,18.00
2019-05-17T06:17:42.477Z,17.50
2019-05-17T06:18:42.400Z,17.70
2019-05-17T06:19:42.217Z,18.10
2019-05-17T06:20:41.789Z,17.40
2019-05-17T06:21:42.501Z,18.30
2019-05-17T06:22:42.500Z,16.70
2019-05-17T06:23:42.408Z,16.10
2019-05-17T06:24:42.428Z,16.90
2019-05-17T06:25:43.101Z,17.10
2019-05-17T06:26:42.173Z,17.80
2019-05-17T06:27:41.529Z,16.80
2019-05-17T06:28:42.341Z,15.90
2019-05-17T06:29:41.522Z,16.70
2019-05-17T06:30:42.655Z,17.00
2019-05-17T06:31:43.028Z,15.40
2019-05-17T06:32:43.189Z,17.60
2019-05-17T06:33:42.185Z,17.80
2019-05-17T06:34:42.323Z,20.70
2019-05-17T06:35:42.340Z,17.70
2019-05-17T06:36:42.311Z,18.20
2019-05-17T06:37:42.258Z,18.40
2019-05-17T06:38:42.048Z,16.80
2019-05-17T06:39:41.941Z,17.70
2019-05-17T06:40:42.020Z,17.10
2019-05-17T06:41:41.924Z,18.00
2019-05-17T06:42:44.733Z,19.20
2019-05-17T06:43:41.616Z,17.40
2019-05-17T06:44:41.736Z,18.40
2019-05-17T06:45:41.936Z,16.90
2019-05-17T06:46:41.881Z,14.60
2019-05-17T06:47:42.498Z,16.90
2019-05-17T06:48:42.331Z,17.10
2019-05-17T06:49:42.315Z,18.10
2019-05-17T06:50:42.549Z,17.90
2019-05-17T06:51:42.376Z,17.70
2019-05-17T06:52:43.131Z,17.10
2019-05-17T06:53:40.391Z,18.20
2019-05-17T06:54:41.746Z,18.60
2019-05-17T06:55:42.456Z,13.70
2019-05-17T06:56:41.874Z,18.70
2019-05-17T06:57:42.850Z,19.80
2019-05-17T06:58:40.386Z,16.00
2019-05-17T06:59:40.414Z,17.80
2019-05-17T07:00:40.550Z,16.80
2019-05-17T07:01:41.004Z,11.70
2019-05-17T07:02:40.387Z,18.50
2019-05-17T07:03:40.391Z,17.60
2019-05-17T07:04:40.392Z,18.30
2019-05-17T07:05:40.601Z,18.10
2019-05-17T07:06:40.656Z,18.40
2019-05-17T07:07:40.604Z,17.70
2019-05-17T07:08:40.390Z,15.60
2019-05-17T07:09:40.387Z,16.00
2019-05-17T07:10:40.383Z,18.10
2019-05-17T07:11:40.414Z,18.30
2019-05-17T07:12:54.590Z,15.10
2019-05-17T07:13:40.378Z,19.60
2019-05-17T07:14:40.390Z,18.70
2019-05-17T07:15:47.201Z,18.40
2019-05-17T07:16:40.418Z,19.10
2019-05-17T07:17:40.413Z,18.80
2019-05-17T07:18:40.383Z,18.50
2019-05-17T07:19:40.417Z,18.30
2019-05-17T07:20:40.390Z,15.30
2019-05-17T07:21:40.617Z,17.90
2019-05-17T07:22:41.037Z,18.00
2019-05-17T07:23:40.385Z,17.40
2019-05-17T07:24:40.383Z,17.80
2019-05-17T07:25:40.411Z,17.60
2019-05-17T07:26:40.379Z,18.10
2019-05-17T07:27:44.785Z,18.80
2019-05-17T07:28:40.577Z,18.70
2019-05-17T07:29:40.503Z,18.70
2019-05-17T07:30:40.412Z,19.20
2019-05-17T07:31:40.615Z,18.60
2019-05-17T07:32:40.875Z,17.80
2019-05-17T07:33:40.381Z,17.30
2019-05-17T07:34:40.406Z,17.40
2019-05-17T07:35:40.417Z,17.40
2019-05-17T07:36:40.388Z,18.50
2019-05-17T07:37:40.407Z,17.90
2019-05-17T07:38:40.386Z,16.30
2019-05-17T07:39:42.373Z,13.90
2019-05-17T07:40:40.419Z,18.90
2019-05-17T07:41:40.395Z,11.10
2019-05-17T07:42:40.389Z,17.50
2019-05-17T07:43:40.648Z,16.30
2019-05-17T07:44:40.390Z,16.10
2019-05-17T07:45:40.736Z,17.00
2019-05-17T07:46:40.391Z,16.80
2019-05-17T07:47:40.773Z,16.80
2019-05-17T07:48:40.661Z,17.50
2019-05-17T07:49:40.570Z,15.20
2019-05-17T07:50:40.422Z,16.60
2019-05-17T07:51:40.396Z,15.70
2019-05-17T07:52:40.408Z,16.30
2019-05-17T07:53:40.393Z,16.90
2019-05-17T07:54:40.392Z,15.60
2019-05-17T07:55:40.425Z,14.40
2019-05-17T07:56:40.429Z,17.90
2019-05-17T07:57:40.999Z,15.70
2019-05-17T07:58:40.549Z,14.90
2019-05-17T07:59:40.404Z,13.70
2019-05-17T08:00:40.479Z,13.40
2019-05-17T08:01:41.209Z,15.60
2019-05-17T08:02:40.544Z,14.60
2019-05-17T08:03:40.546Z,16.00
2019-05-17T08:04:40.796Z,15.40
2019-05-17T08:05:40.600Z,15.00
2019-05-17T08:06:40.481Z,14.30
2019-05-17T08:07:40.863Z,13.20
2019-05-17T08:08:41.077Z,13.70
2019-05-17T08:09:40.525Z,13.80
2019-05-17T08:10:41.205Z,16.20
2019-05-17T08:11:40.440Z,14.70
2019-05-17T08:12:41.073Z,15.40
2019-05-17T08:13:40.412Z,12.90
2019-05-17T08:14:40.426Z,14.50
2019-05-17T08:15:40.422Z,14.00
2019-05-17T08:16:40.442Z,13.80
2019-05-17T08:17:40.420Z,12.20
2019-05-17T08:18:40.425Z,15.10
2019-05-17T08:19:40.445Z,15.50
2019-05-17T08:20:40.427Z,13.80
2019-05-17T08:21:40.458Z,11.90
2019-05-17T08:22:40.427Z,13.60
2019-05-17T08:23:40.427Z,12.30
2019-05-17T08:24:40.427Z,12.00
2019-05-17T08:25:52.138Z,13.20
2019-05-17T08:26:40.569Z,12.20
2019-05-17T08:27:40.788Z,12.50
2019-05-17T08:28:40.721Z,11.30
2019-05-17T08:29:42.423Z,11.70
2019-05-17T08:30:41.128Z,11.80
2019-05-17T08:31:40.659Z,8.90
2019-05-17T08:32:40.600Z,10.00
2019-05-17T08:33:40.753Z,12.40
2019-05-17T08:34:40.444Z,12.80
2019-05-17T08:35:40.474Z,11.40
2019-05-17T08:36:40.711Z,10.90
2019-05-17T08:37:42.400Z,12.30
2019-05-17T08:38:40.447Z,11.50
2019-05-17T08:39:40.467Z,12.50
2019-05-17T08:40:40.809Z,11.60
2019-05-17T08:41:40.645Z,12.60
2019-05-17T08:42:40.882Z,14.30
2019-05-17T08:43:46.600Z,12.80
2019-05-17T08:44:40.452Z,12.30
2019-05-17T08:45:40.969Z,12.10
2019-05-17T08:46:40.453Z,12.60
2019-05-17T08:47:40.481Z,12.10
2019-05-17T08:48:40.466Z,11.90
2019-05-17T08:49:40.486Z,12.00
2019-05-17T08:50:40.658Z,11.80
2019-05-17T08:51:40.458Z,11.80
2019-05-17T08:52:40.681Z,11.20
2019-05-17T08:53:40.460Z,11.90
2019-05-17T08:54:42.823Z,11.70
2019-05-17T08:55:41.073Z,13.30
2019-05-17T08:56:40.543Z,10.60
2019-05-17T08:57:40.475Z,11.50
2019-05-17T08:58:40.548Z,11.20
2019-05-17T08:59:40.683Z,11.10
2019-05-17T09:00:41.029Z,11.50
2019-05-17T09:01:41.868Z,12.10
2019-05-17T09:02:41.140Z,10.90
2019-05-17T09:03:41.205Z,11.90
2019-05-17T09:04:40.632Z,11.10
2019-05-17T09:05:41.845Z,11.30
2019-05-17T09:06:40.472Z,11.40
2019-05-17T09:07:40.541Z,12.10
2019-05-17T09:08:40.657Z,10.60
2019-05-17T09:09:40.464Z,10.20
2019-05-17T09:10:41.007Z,10.20
2019-05-17T09:11:40.472Z,12.00
2019-05-17T09:12:41.138Z,10.20
2019-05-17T09:13:53.410Z,10.10
2019-05-17T09:14:40.468Z,10.20
2019-05-17T09:15:40.490Z,9.80
2019-05-17T09:16:40.476Z,10.00
2019-05-17T09:17:40.466Z,10.80
2019-05-17T09:18:40.496Z,9.80
2019-05-17T09:19:40.476Z,9.60
2019-05-17T09:20:40.834Z,10.90
2019-05-17T09:21:40.475Z,10.00
2019-05-17T09:22:40.475Z,10.90
2019-05-17T09:23:40.501Z,9.20
2019-05-17T09:24:40.479Z,9.90
2019-05-17T09:25:40.480Z,10.40
2019-05-17T09:26:40.499Z,9.00
2019-05-17T09:27:40.475Z,10.00
2019-05-17T09:28:40.479Z,10.20
2019-05-17T09:29:40.519Z,7.60
2019-05-17T09:30:40.835Z,10.40
2019-05-17T09:31:40.577Z,10.00
2019-05-17T09:32:40.719Z,10.80
2019-05-17T09:33:40.730Z,11.50
2019-05-17T09:34:40.571Z,10.10
2019-05-17T09:35:40.957Z,11.40
2019-05-17T09:36:40.993Z,10.60
2019-05-17T09:37:41.330Z,9.90
2019-05-17T09:38:40.601Z,10.50
2019-05-17T09:39:40.512Z,10.60
2019-05-17T09:40:40.565Z,11.40
2019-05-17T09:41:40.496Z,9.20
2019-05-17T09:42:41.361Z,10.20
2019-05-17T09:43:40.521Z,10.30
2019-05-17T09:44:40.581Z,9.30
2019-05-17T09:45:40.788Z,9.60
2019-05-17T09:46:40.494Z,9.70
2019-05-17T09:47:40.502Z,7.40
2019-05-17T09:48:40.532Z,7.70
2019-05-17T09:49:40.501Z,7.20
2019-05-17T09:50:40.633Z,8.70
2019-05-17T09:51:40.509Z,7.30
2019-05-17T09:52:40.905Z,7.10
2019-05-17T09:53:40.514Z,6.80
2019-05-17T09:54:45.165Z,6.40
2019-05-17T09:55:40.514Z,6.10
2019-05-17T09:56:40.516Z,6.70
2019-05-17T09:57:41.115Z,6.70
2019-05-17T09:58:40.521Z,6.50
2019-05-17T09:59:40.693Z,7.10
2019-05-17T10:00:40.518Z,6.80
2019-05-17T10:01:40.524Z,7.30
2019-05-17T10:02:40.580Z,6.00
2019-05-17T10:03:40.528Z,6.90
2019-05-17T10:04:40.554Z,7.20
2019-05-17T10:05:40.879Z,7.10
2019-05-17T10:06:40.525Z,7.30
2019-05-17T10:07:40.649Z,8.10
2019-05-17T10:08:40.534Z,8.10
2019-05-17T10:09:40.565Z,7.70
2019-05-17T10:10:40.569Z,8.20
2019-05-17T10:11:40.547Z,8.40
2019-05-17T10:12:40.699Z,8.00
2019-05-17T10:13:40.552Z,7.70
2019-05-17T10:14:40.567Z,8.40
2019-05-17T10:15:41.121Z,8.30
2019-05-17T10:16:40.539Z,9.80
2019-05-17T10:17:40.545Z,8.20
2019-05-17T10:18:40.553Z,7.50
2019-05-17T10:19:40.580Z,7.20
2019-05-17T10:20:40.546Z,8.60
2019-05-17T10:21:40.549Z,7.60
2019-05-17T10:22:40.552Z,7.00
2019-05-17T10:23:40.829Z,7.90
2019-05-17T10:24:42.460Z,7.50
2019-05-17T10:25:40.592Z,6.80
2019-05-17T10:26:40.554Z,7.10
2019-05-17T10:27:40.901Z,7.10
2019-05-17T10:28:40.553Z,6.00
2019-05-17T10:29:40.581Z,5.90
2019-05-17T10:30:40.554Z,6.60
2019-05-17T10:31:40.555Z,6.00
2019-05-17T10:32:41.113Z,5.40
2019-05-17T10:33:40.559Z,6.10
2019-05-17T10:34:40.585Z,5.00
2019-05-17T10:35:40.898Z,5.80
2019-05-17T10:36:40.561Z,4.90
2019-05-17T10:37:40.973Z,5.10
2019-05-17T10:38:40.562Z,5.70
2019-05-17T10:39:41.674Z,5.50
2019-05-17T10:40:41.132Z,5.70
2019-05-17T10:41:40.795Z,5.80
2019-05-17T10:42:40.570Z,6.00
2019-05-17T10:43:40.581Z,6.10
2019-05-17T10:44:47.101Z,6.40
2019-05-17T10:45:40.611Z,5.20
2019-05-17T10:46:40.793Z,5.70
2019-05-17T10:47:40.589Z,6.00
2019-05-17T10:48:41.197Z,5.90
2019-05-17T10:49:40.589Z,6.00
2019-05-17T10:50:40.949Z,5.90
2019-05-17T10:51:40.598Z,5.70
2019-05-17T10:52:41.281Z,6.10
2019-05-17T10:53:40.598Z,5.80
2019-05-17T10:54:40.599Z,4.90
2019-05-17T10:55:40.636Z,5.00
2019-05-17T10:56:40.611Z,4.60
2019-05-17T10:57:40.612Z,5.50
2019-05-17T10:58:40.613Z,5.50
2019-05-17T10:59:40.614Z,5.50
2019-05-17T11:00:41.549Z,5.70
2019-05-17T11:01:40.626Z,5.50
2019-05-17T11:02:40.622Z,5.70
2019-05-17T11:03:40.634Z,5.50
2019-05-17T11:04:40.632Z,5.20
2019-05-17T11:05:40.667Z,5.30
2019-05-17T11:06:40.638Z,5.40
2019-05-17T11:07:40.643Z,5.40
2019-05-17T11:08:40.643Z,5.10
2019-05-17T11:09:40.752Z,5.10
2019-05-17T11:10:40.674Z,5.30
2019-05-17T11:11:40.654Z,4.80
2019-05-17T11:12:40.660Z,4.80
2019-05-17T11:13:40.663Z,5.80
2019-05-17T11:14:52.179Z,5.20
2019-05-17T11:15:40.697Z,5.00
2019-05-17T11:16:40.672Z,5.00
2019-05-17T11:17:40.676Z,4.70
2019-05-17T11:18:40.683Z,4.80
2019-05-17T11:19:40.688Z,4.50
2019-05-17T11:20:40.717Z,4.40
2019-05-17T11:21:40.695Z,4.50
2019-05-17T11:22:40.700Z,5.50
2019-05-17T11:23:40.706Z,5.10
2019-05-17T11:24:40.711Z,5.30
2019-05-17T11:25:45.461Z,5.50
2019-05-17T11:26:40.712Z,4.50
2019-05-17T11:27:40.719Z,5.30
2019-05-17T11:28:40.726Z,5.10
2019-05-17T11:29:40.726Z,5.10
2019-05-17T11:30:40.758Z,4.70
2019-05-17T11:31:40.746Z,5.30
2019-05-17T11:32:40.744Z,5.10
2019-05-17T11:33:40.748Z,5.30
2019-05-17T11:34:40.749Z,4.70
2019-05-17T11:35:40.789Z,4.60
2019-05-17T11:36:40.754Z,4.60
2019-05-17T11:37:40.758Z,4.70
2019-05-17T11:38:41.562Z,4.60
2019-05-17T11:39:40.768Z,5.20
2019-05-17T11:40:40.797Z,4.90
2019-05-17T11:41:40.774Z,4.80
2019-05-17T11:42:40.781Z,4.30
2019-05-17T11:43:40.796Z,4.80
2019-05-17T11:44:40.788Z,4.70
2019-05-17T11:45:40.824Z,4.90
2019-05-17T11:46:40.794Z,4.90
2019-05-17T11:47:40.801Z,5.10
2019-05-17T11:48:40.799Z,5.60
2019-05-17T11:49:40.810Z,4.50
2019-05-17T11:50:40.838Z,4.70
2019-05-17T11:51:40.812Z,4.50
2019-05-17T11:52:40.812Z,4.10
2019-05-17T11:53:40.821Z,2.50
2019-05-17T11:54:40.822Z,4.70
2019-05-17T11:55:40.858Z,4.40
2019-05-17T11:56:40.827Z,4.10
2019-05-17T11:57:40.833Z,4.20
2019-05-17T11:58:41.027Z,8.90
2019-05-17T11:59:40.868Z,5.70
2019-05-17T12:00:40.853Z,5.50
2019-05-17T12:01:40.860Z,3.00
2019-05-17T12:02:40.855Z,4.00
2019-05-17T12:03:40.858Z,3.50
2019-05-17T12:04:40.890Z,3.80
2019-05-17T12:05:40.872Z,4.10
2019-05-17T12:06:40.868Z,3.80
2019-05-17T12:07:40.875Z,4.00
2019-05-17T12:08:40.877Z,4.10
2019-05-17T12:09:40.901Z,4.00
2019-05-17T12:10:40.965Z,4.40
2019-05-17T12:11:40.884Z,4.30
2019-05-17T12:12:40.892Z,3.80
2019-05-17T12:13:43.592Z,5.20
2019-05-17T12:14:40.925Z,3.90
2019-05-17T12:15:44.968Z,4.40
2019-05-17T12:16:40.905Z,4.80
2019-05-17T12:17:40.906Z,3.80
2019-05-17T12:18:40.946Z,4.50
2019-05-17T12:19:40.950Z,4.50
2019-05-17T12:20:40.947Z,4.00
2019-05-17T12:21:40.926Z,4.80
2019-05-17T12:22:40.926Z,4.30
2019-05-17T12:23:40.930Z,4.90
2019-05-17T12:24:40.935Z,4.40
2019-05-17T12:25:40.965Z,4.60
2019-05-17T12:26:40.945Z,4.90
2019-05-17T12:27:40.952Z,4.70
2019-05-17T12:28:40.959Z,4.90
2019-05-17T12:29:41.023Z,4.40
2019-05-17T12:30:40.964Z,4.80
2019-05-17T12:31:40.962Z,4.40
2019-05-17T12:32:40.965Z,4.90
2019-05-17T12:33:41.074Z,5.00
2019-05-17T12:34:41.017Z,4.50
2019-05-17T12:35:40.977Z,4.50
2019-05-17T12:36:41.003Z,4.20
2019-05-17T12:37:42.529Z,4.50
2019-05-17T12:38:40.996Z,4.30
2019-05-17T12:39:41.029Z,4.30
2019-05-17T12:40:40.999Z,4.70
2019-05-17T12:41:41.041Z,4.50
2019-05-17T12:42:41.004Z,4.80
2019-05-17T12:43:41.021Z,4.50
2019-05-17T12:44:41.040Z,4.30
2019-05-17T12:45:41.015Z,4.80
2019-05-17T12:46:41.024Z,5.00
2019-05-17T12:47:41.059Z,4.70
2019-05-17T12:48:41.025Z,4.30
2019-05-17T12:49:41.067Z,4.90
2019-05-17T12:50:41.036Z,4.70
2019-05-17T12:51:41.045Z,4.80
2019-05-17T12:52:41.044Z,5.20
2019-05-17T12:53:41.046Z,4.70
2019-05-17T12:54:41.102Z,4.50
2019-05-17T12:55:41.080Z,4.80
2019-05-17T12:56:41.102Z,4.10
2019-05-17T12:57:41.058Z,4.80
2019-05-17T12:58:41.067Z,5.00
2019-05-17T12:59:41.069Z,5.10